createdAt,value
2022-09-10T00:00:06.747Z,1.12
2022-09-10T00:02:33.731Z,0.65
2022-09-10T00:05:00.918Z,0.85
2022-09-10T00:07:27.890Z,0.55
2022-09-10T00:09:56.324Z,0.78
2022-09-10T00:12:23.205Z,1.17
2022-09-10T00:14:50.143Z,1.32
2022-09-10T00:17:17.012Z,0.75
2022-09-10T00:19:43.814Z,0.98
2022-09-10T00:22:10.990Z,1.11
2022-09-10T00:24:37.915Z,0.82
2022-09-10T00:27:07.385Z,1.76
2022-09-10T00:29:34.177Z,0.99
2022-09-10T00:32:02.894Z,0.64
2022-09-10T00:34:29.882Z,1.02
2022-09-10T00:36:57.667Z,0.73
2022-09-10T00:39:28.850Z,1.03
2022-09-10T00:41:55.649Z,0.63
2022-09-10T00:44:59.194Z,0.55
2022-09-10T00:47:31.597Z,0.58
2022-09-10T00:50:07.482Z,0.62
2022-09-10T00:52:39.562Z,0.57
2022-09-10T00:55:08.618Z,0.64
2022-09-10T00:57:35.609Z,0.86
2022-09-10T01:00:08.226Z,0.56
2022-09-10T01:02:35.036Z,0.81
2022-09-10T01:05:04.379Z,1.02
2022-09-10T01:07:32.225Z,1.20
2022-09-10T01:10:01.966Z,1.21
2022-09-10T01:12:51.874Z,0.94
2022-09-10T01:15:33.458Z,0.62
2022-09-10T01:18:13.243Z,0.42
2022-09-10T01:20:54.539Z,0.32
2022-09-10T01:24:01.362Z,0.26
2022-09-10T01:26:47.115Z,0.30
2022-09-10T01:29:23.114Z,0.83
2022-09-10T01:32:02.554Z,1.05
2022-09-10T01:34:34.569Z,0.68
2022-09-10T01:37:06.088Z,0.45
2022-09-10T01:39:32.937Z,0.33
2022-09-10T01:42:00.570Z,0.55
2022-09-10T01:44:46.703Z,0.34
2022-09-10T01:47:22.270Z,0.29
2022-09-10T01:50:09.778Z,0.99
2022-09-10T01:52:51.266Z,0.91
2022-09-10T01:55:32.218Z,1.57
2022-09-10T01:58:16.582Z,1.32
2022-09-10T02:00:52.236Z,1.34
2022-09-10T02:03:25.399Z,1.07
2022-09-10T02:05:54.845Z,0.75
2022-09-10T02:08:27.196Z,0.52
2022-09-10T02:10:57.751Z,0.41
2022-09-10T02:13:25.510Z,0.32
2022-09-10T02:15:54.209Z,0.69
2022-09-10T02:18:23.499Z,0.68
2022-09-10T02:20:54.838Z,0.82
2022-09-10T02:23:29.423Z,1.58
2022-09-10T02:25:57.750Z,0.94
2022-09-10T02:28:24.756Z,0.63
2022-09-10T02:30:53.256Z,1.06
2022-09-10T02:33:24.799Z,1.13
2022-09-10T02:35:51.525Z,0.81
2022-09-10T02:38:21.229Z,0.90
2022-09-10T02:40:49.621Z,0.67
2022-09-10T02:43:18.059Z,0.50
2022-09-10T02:45:47.153Z,0.50
2022-09-10T02:48:15.586Z,0.78
2022-09-10T02:50:46.763Z,0.48
2022-09-10T02:53:13.677Z,0.59
2022-09-10T02:55:40.589Z,2.47
2022-09-10T02:58:07.295Z,1.54
2022-09-10T03:00:34.811Z,1.06
2022-09-10T03:03:03.178Z,1.30
2022-09-10T03:05:32.055Z,1.11
2022-09-10T03:07:59.067Z,0.63
2022-09-10T03:10:29.566Z,0.79
2022-09-10T03:12:56.454Z,0.77
2022-09-10T03:15:24.321Z,0.92
2022-09-10T03:17:51.779Z,1.44
2022-09-10T03:20:19.038Z,0.81
2022-09-10T03:22:47.950Z,1.01
2022-09-10T03:25:15.317Z,0.73
2022-09-10T03:27:42.922Z,2.88
2022-09-10T03:30:11.799Z,1.86
2022-09-10T03:32:38.675Z,1.04
2022-09-10T03:35:07.847Z,0.64
2022-09-10T03:37:35.487Z,0.44
2022-09-10T03:40:06.722Z,0.33
2022-09-10T03:42:34.648Z,0.51
2022-09-10T03:45:01.654Z,1.02
2022-09-10T03:47:29.554Z,0.75
2022-09-10T03:49:59.498Z,0.49
2022-09-10T03:52:27.531Z,0.33
2022-09-10T03:54:55.624Z,0.42
2022-09-10T03:57:25.002Z,2.26
2022-09-10T03:59:51.760Z,1.44
2022-09-10T04:02:21.703Z,0.83
2022-09-10T04:04:49.122Z,1.19
2022-09-10T04:07:18.103Z,1.24
2022-09-10T04:09:45.522Z,0.82
2022-09-10T04:12:13.723Z,0.50
2022-09-10T04:14:42.155Z,0.43
2022-09-10T04:17:10.479Z,0.32
2022-09-10T04:19:37.276Z,0.17
2022-09-10T04:22:04.666Z,3.82
2022-09-10T04:24:31.514Z,2.24
2022-09-10T04:27:00.131Z,1.82
2022-09-10T04:29:29.991Z,1.27
2022-09-10T04:31:58.098Z,1.53
2022-09-10T04:34:26.973Z,0.96
2022-09-10T04:36:54.290Z,0.51
2022-09-10T04:39:21.103Z,0.32
2022-09-10T04:41:48.930Z,0.41
2022-09-10T04:44:17.106Z,0.98
2022-09-10T04:46:45.821Z,1.28
2022-09-10T04:49:15.210Z,0.73
2022-09-10T04:51:42.200Z,1.25
2022-09-10T04:54:11.447Z,0.82
2022-09-10T04:56:38.448Z,0.67
2022-09-10T04:59:06.019Z,0.42
2022-09-10T05:01:35.950Z,0.24
2022-09-10T05:04:06.297Z,0.30
2022-09-10T05:06:34.463Z,0.25
2022-09-10T05:09:01.478Z,0.44
2022-09-10T05:11:28.499Z,0.44
2022-09-10T05:13:55.847Z,0.86
2022-09-10T05:16:22.640Z,0.55
2022-09-10T05:18:50.603Z,0.55
2022-09-10T05:21:22.863Z,0.67
2022-09-10T05:23:51.023Z,0.40
2022-09-10T05:26:20.562Z,0.98
2022-09-10T05:28:49.088Z,2.09
2022-09-10T05:31:16.088Z,1.45
2022-09-10T05:33:43.599Z,0.92
2022-09-10T05:36:10.833Z,0.54
2022-09-10T05:38:39.991Z,0.75
2022-09-10T05:41:11.240Z,0.49
2022-09-10T05:43:38.491Z,0.35
2022-09-10T05:46:06.686Z,0.39
2022-09-10T05:48:33.497Z,0.44
2022-09-10T05:51:04.535Z,0.28
2022-09-10T05:53:33.475Z,0.39
2022-09-10T05:56:02.900Z,0.21
2022-09-10T05:58:31.084Z,1.61
2022-09-10T06:00:57.952Z,2.18
2022-09-10T06:03:24.859Z,1.16
2022-09-10T06:05:52.488Z,2.35
2022-09-10T06:08:20.385Z,1.29
2022-09-10T06:10:57.837Z,0.76
2022-09-10T06:13:26.064Z,0.58
2022-09-10T06:15:54.565Z,0.36
2022-09-10T06:18:23.727Z,0.58
2022-09-10T06:21:01.648Z,0.35
2022-09-10T06:23:30.723Z,0.24
2022-09-10T06:26:03.834Z,0.19
2022-09-10T06:28:33.570Z,0.71
2022-09-10T06:31:04.797Z,0.43
2022-09-10T06:33:36.113Z,0.49
2022-09-10T06:36:04.888Z,0.65
2022-09-10T06:38:33.755Z,0.62
2022-09-10T06:41:05.005Z,0.57
2022-09-10T06:43:34.860Z,0.78
2022-09-10T06:46:24.874Z,0.64
2022-09-10T06:48:55.269Z,1.34
2022-09-10T06:51:23.605Z,0.99
2022-09-10T06:53:52.930Z,0.78
2022-09-10T06:56:19.679Z,1.31
2022-09-10T06:58:48.570Z,1.26
2022-09-10T07:01:19.445Z,0.91
2022-09-10T07:03:48.891Z,0.74
2022-09-10T07:06:17.351Z,1.03
2022-09-10T07:08:48.259Z,0.71
2022-09-10T07:11:16.971Z,1.02
2022-09-10T07:13:44.741Z,1.03
2022-09-10T07:16:17.126Z,0.85
2022-09-10T07:18:48.774Z,0.62
2022-09-10T07:23:55.666Z,0.75
2022-09-10T07:26:24.897Z,0.92
2022-09-10T07:28:53.787Z,1.10
2022-09-10T07:31:28.895Z,0.80
2022-09-10T07:33:57.966Z,0.56
2022-09-10T07:36:26.049Z,0.46
2022-09-10T07:38:56.133Z,0.70
2022-09-10T07:41:33.882Z,0.70
2022-09-10T07:44:00.611Z,0.50
2022-09-10T07:46:27.420Z,1.67
2022-09-10T07:48:55.897Z,1.16
2022-09-10T07:51:25.561Z,1.00
2022-09-10T07:53:54.238Z,1.58
2022-09-10T07:56:23.415Z,1.16
2022-09-10T07:58:50.654Z,0.79
2022-09-10T08:01:17.648Z,0.95
2022-09-10T08:03:45.586Z,1.21
2022-09-10T08:06:13.285Z,1.86
2022-09-10T08:08:44.898Z,1.72
2022-09-10T08:11:13.447Z,1.54
2022-09-10T08:13:43.994Z,1.61
2022-09-10T08:16:12.877Z,1.71
2022-09-10T08:18:47.532Z,1.52
2022-09-10T08:21:16.404Z,1.62
2022-09-10T08:23:48.540Z,0.96
2022-09-10T08:26:16.500Z,0.96
2022-09-10T08:28:46.329Z,0.82
2022-09-10T08:31:13.230Z,1.31
2022-09-10T08:33:40.885Z,1.18
2022-09-10T08:36:10.553Z,0.97
2022-09-10T08:38:39.718Z,2.28
2022-09-10T08:41:19.674Z,1.53
2022-09-10T08:43:54.662Z,1.26
2022-09-10T08:46:24.317Z,1.30
2022-09-10T08:49:00.136Z,0.78
2022-09-10T08:51:32.569Z,0.48
2022-09-10T08:54:05.048Z,0.52
2022-09-10T08:56:34.525Z,0.52
2022-09-10T08:59:05.010Z,0.33
2022-09-10T09:01:40.735Z,0.27
2022-09-10T09:04:16.182Z,0.54
2022-09-10T09:06:48.271Z,0.45
2022-09-10T09:09:16.084Z,0.95
2022-09-10T09:11:52.150Z,0.69
2022-09-10T09:14:34.861Z,1.03
2022-09-10T09:17:16.725Z,0.83
2022-09-10T09:19:52.367Z,0.65
2022-09-10T09:22:36.993Z,0.44
2022-09-10T09:25:21.066Z,0.28
2022-09-10T09:27:53.065Z,0.52
2022-09-10T09:30:23.964Z,0.42
2022-09-10T09:32:58.415Z,0.38
2022-09-10T09:35:36.076Z,0.25
2022-09-10T09:38:33.388Z,0.39
2022-09-10T09:41:03.908Z,0.57
2022-09-10T09:43:41.443Z,1.31
2022-09-10T09:46:16.852Z,0.75
2022-09-10T09:48:45.456Z,0.44
2022-09-10T09:51:17.237Z,0.28
2022-09-10T09:53:48.157Z,0.67
2022-09-10T09:56:21.947Z,0.55
2022-09-10T09:58:53.915Z,0.39
2022-09-10T10:01:24.627Z,0.32
2022-09-10T10:03:57.178Z,0.22
2022-09-10T10:06:28.548Z,0.36
2022-09-10T10:09:01.234Z,0.42
2022-09-10T10:11:47.029Z,0.31
2022-09-10T10:14:37.170Z,0.33
2022-09-10T10:17:39.070Z,0.22
2022-09-10T10:20:14.572Z,0.19
2022-09-10T10:22:44.052Z,0.44
2022-09-10T10:25:37.450Z,0.25
2022-09-10T10:28:29.444Z,0.18
2022-09-10T10:31:03.514Z,0.31
2022-09-10T10:33:33.947Z,0.21
2022-09-10T10:36:10.474Z,0.33
2022-09-10T10:38:49.007Z,0.71
2022-09-10T10:41:35.598Z,0.46
2022-09-10T10:44:49.145Z,0.30
2022-09-10T10:47:41.816Z,0.34
2022-09-10T10:50:20.418Z,0.26
2022-09-10T10:53:01.261Z,0.19
2022-09-10T10:55:38.428Z,0.24
2022-09-10T10:58:19.607Z,0.22
2022-09-10T11:00:58.278Z,0.78
2022-09-10T11:03:35.892Z,0.51
2022-09-10T11:06:08.673Z,0.27
2022-09-10T11:08:43.365Z,0.24
2022-09-10T11:11:15.555Z,0.83
2022-09-10T11:13:50.812Z,0.44
2022-09-10T11:16:24.207Z,0.23
2022-09-10T11:18:57.042Z,0.62
2022-09-10T11:21:33.587Z,0.38
2022-09-10T11:24:04.945Z,0.22
2022-09-10T11:26:37.757Z,0.40
2022-09-10T11:31:58.522Z,0.31
2022-09-10T11:34:40.172Z,0.31
2022-09-10T11:37:15.203Z,0.21
2022-09-10T11:39:47.384Z,0.11
2022-09-10T11:42:22.417Z,0.25
2022-09-10T11:44:59.972Z,0.93
2022-09-10T11:47:33.218Z,0.49
2022-09-10T11:50:08.716Z,0.26
2022-09-10T11:52:45.571Z,0.29
2022-09-10T11:55:18.463Z,0.15
2022-09-10T11:57:58.593Z,0.36
2022-09-10T12:00:38.780Z,0.53
2022-09-10T12:03:35.384Z,0.32
2022-09-10T12:06:14.095Z,0.37
2022-09-10T12:09:01.109Z,0.24
2022-09-10T12:11:36.883Z,0.24
2022-09-10T12:14:07.726Z,0.37
2022-09-10T12:16:44.589Z,0.30
2022-09-10T12:19:23.211Z,0.19
2022-09-10T12:21:56.984Z,0.17
2022-09-10T12:24:29.195Z,0.45
2022-09-10T12:27:00.959Z,0.31
2022-09-10T12:29:33.939Z,0.21
2022-09-10T12:35:46.084Z,0.50
2022-09-10T12:38:52.032Z,0.76
2022-09-10T12:42:02.560Z,0.49
2022-09-10T12:44:46.558Z,0.26
2022-09-10T12:47:53.337Z,0.18
2022-09-10T12:50:29.110Z,0.15
2022-09-10T12:53:22.645Z,0.12
2022-09-10T12:56:02.057Z,0.33
2022-09-10T12:58:47.531Z,0.69
2022-09-10T13:01:26.152Z,0.37
2022-09-10T13:04:01.901Z,0.46
2022-09-10T13:06:37.439Z,0.61
2022-09-10T13:09:20.037Z,0.99
2022-09-10T13:11:52.542Z,0.67
2022-09-10T13:14:27.043Z,0.40
2022-09-10T13:16:55.442Z,0.65
2022-09-10T13:19:50.641Z,0.67
2022-09-10T13:23:01.690Z,0.76
2022-09-10T13:25:37.561Z,0.65
2022-09-10T13:28:50.378Z,0.71
2022-09-10T13:31:28.488Z,2.53
2022-09-10T13:34:21.361Z,2.59
2022-09-10T13:37:03.297Z,2.81
2022-09-10T13:40:17.485Z,1.79
2022-09-10T13:43:06.837Z,1.00
2022-09-10T13:45:50.901Z,1.48
2022-09-10T13:48:21.157Z,0.79
2022-09-10T13:50:57.753Z,0.78
2022-09-10T13:53:27.116Z,0.70
2022-09-10T13:55:59.077Z,0.82
2022-09-10T13:58:30.399Z,0.82
2022-09-10T14:01:01.568Z,0.78
2022-09-10T14:03:34.763Z,0.75
2022-09-10T14:06:05.717Z,0.58
2022-09-10T14:08:37.610Z,0.32
2022-09-10T14:11:25.707Z,0.31
2022-09-10T14:13:58.522Z,0.21
2022-09-10T14:16:31.302Z,0.19
2022-09-10T14:19:02.314Z,0.12
2022-09-10T14:21:31.598Z,0.09
2022-09-10T14:24:00.387Z,0.22
2022-09-10T14:26:29.616Z,0.17
2022-09-10T14:29:02.555Z,0.10
2022-09-10T14:31:36.843Z,0.05
2022-09-10T14:36:50.799Z,0.03
2022-09-10T14:39:19.811Z,0.17
2022-09-10T14:41:50.459Z,0.09
2022-09-10T14:44:28.601Z,0.14
2022-09-10T14:47:01.011Z,0.07
2022-09-10T14:49:32.354Z,0.08
2022-09-10T14:52:01.688Z,0.11
2022-09-10T14:54:33.970Z,0.10
2022-09-10T14:57:04.029Z,1.26
2022-09-10T14:59:34.243Z,1.04
2022-09-10T15:02:06.205Z,0.55
2022-09-10T15:04:34.946Z,0.33
2022-09-10T15:07:02.694Z,0.22
2022-09-10T15:09:31.954Z,0.34
2022-09-10T15:12:05.040Z,0.23
2022-09-10T15:14:33.121Z,0.17
2022-09-10T15:17:00.290Z,0.18
2022-09-10T15:19:29.960Z,0.10
2022-09-10T15:21:58.054Z,0.68
2022-09-10T15:24:30.310Z,0.41
2022-09-10T15:27:00.197Z,3.72
2022-09-10T15:29:30.670Z,2.14
2022-09-10T15:31:59.312Z,1.18
2022-09-10T15:34:30.713Z,0.69
2022-09-10T15:36:57.728Z,0.36
2022-09-10T15:39:28.706Z,0.58
2022-09-10T15:41:57.749Z,2.35
2022-09-10T15:44:25.542Z,1.35
2022-09-10T15:46:53.349Z,1.22
2022-09-10T15:49:20.845Z,0.65
2022-09-10T15:51:50.643Z,0.34
2022-09-10T15:54:19.469Z,1.19
2022-09-10T15:56:47.716Z,0.89
2022-09-10T15:59:15.194Z,0.57
2022-09-10T16:01:43.927Z,0.42
2022-09-10T16:04:11.175Z,1.13
2022-09-10T16:06:40.303Z,0.86
2022-09-10T16:09:10.988Z,0.46
2022-09-10T16:11:44.327Z,0.25
2022-09-10T16:14:13.571Z,0.18
2022-09-10T16:16:41.839Z,0.10
2022-09-10T16:19:10.650Z,0.05
2022-09-10T16:21:38.723Z,0.71
2022-09-10T16:24:09.684Z,0.42
2022-09-10T16:26:40.433Z,0.62
2022-09-10T16:29:13.662Z,0.72
2022-09-10T16:31:44.958Z,0.43
2022-09-10T16:34:14.215Z,0.61
2022-09-10T16:36:41.728Z,0.39
2022-09-10T16:39:13.394Z,0.27
2022-09-10T16:41:43.277Z,6.29
2022-09-10T16:44:11.026Z,5.69
2022-09-10T16:46:39.724Z,5.64
2022-09-10T16:49:12.504Z,3.80
2022-09-10T16:51:41.468Z,3.02
2022-09-10T16:54:13.109Z,3.25
2022-09-10T16:56:42.827Z,2.04
2022-09-10T16:59:12.846Z,1.90
2022-09-10T17:01:39.848Z,1.18
2022-09-10T17:04:09.195Z,0.74
2022-09-10T17:06:35.944Z,0.58
2022-09-10T17:09:05.056Z,0.35
2022-09-10T17:11:33.798Z,0.18
2022-09-10T17:14:01.986Z,0.21
2022-09-10T17:16:30.864Z,0.14
2022-09-10T17:18:59.883Z,0.45
2022-09-10T17:21:27.598Z,0.39
2022-09-10T17:23:56.231Z,1.33
2022-09-10T17:26:24.742Z,1.38
2022-09-10T17:28:57.335Z,0.78
2022-09-10T17:31:26.002Z,0.95
2022-09-10T17:33:53.032Z,0.50
2022-09-10T17:36:19.811Z,0.27
2022-09-10T17:38:46.722Z,0.19
2022-09-10T17:41:14.648Z,0.24
2022-09-10T17:43:43.322Z,0.15
2022-09-10T17:46:19.234Z,0.13
2022-09-10T17:48:47.364Z,0.61
2022-09-10T17:51:17.966Z,0.54
2022-09-10T17:53:45.097Z,0.41
2022-09-10T17:56:19.232Z,0.59
2022-09-10T17:58:46.727Z,0.36
2022-09-10T18:01:23.545Z,0.19
2022-09-10T18:03:54.119Z,0.44
2022-09-10T18:06:26.499Z,0.23
2022-09-10T18:08:53.238Z,0.39
2022-09-10T18:11:25.316Z,0.20
2022-09-10T18:13:54.027Z,0.19
2022-09-10T18:16:24.859Z,0.23
2022-09-10T18:18:53.036Z,0.17
2022-09-10T18:21:24.539Z,0.09
2022-09-10T18:23:52.925Z,0.49
2022-09-10T18:26:22.775Z,0.27
2022-09-10T18:28:56.467Z,0.73
2022-09-10T18:31:26.609Z,0.69
2022-09-10T18:33:54.492Z,1.69
2022-09-10T18:36:23.033Z,1.00
2022-09-10T18:38:52.511Z,0.95
2022-09-10T18:41:21.354Z,0.50
2022-09-10T18:43:51.515Z,0.49
2022-09-10T18:46:19.691Z,0.35
2022-09-10T18:48:48.675Z,0.20
2022-09-10T18:51:18.168Z,0.45
2022-09-10T18:53:48.741Z,0.24
2022-09-10T18:56:19.517Z,0.13
2022-09-10T18:58:49.094Z,0.07
2022-09-10T19:01:16.623Z,0.43
2022-09-10T19:03:45.867Z,0.23
2022-09-10T19:06:17.284Z,0.12
2022-09-10T19:08:47.676Z,0.06
2022-09-10T19:11:15.086Z,0.04
2022-09-10T19:13:48.764Z,0.02
2022-09-10T19:16:16.582Z,0.05
2022-09-10T19:18:43.870Z,0.03
2022-09-10T19:21:12.867Z,0.28
2022-09-10T19:23:41.040Z,0.27
2022-09-10T19:26:09.067Z,0.17
2022-09-10T19:28:36.436Z,0.14
2022-09-10T19:31:04.644Z,0.07
2022-09-10T19:33:32.559Z,0.04
2022-09-10T19:36:04.310Z,0.30
2022-09-10T19:38:47.301Z,0.24
2022-09-10T19:41:18.472Z,0.20
2022-09-10T19:43:46.161Z,0.35
2022-09-10T19:46:13.540Z,0.61
2022-09-10T19:48:41.084Z,0.33
2022-09-10T19:51:14.351Z,0.19
2022-09-10T19:53:42.105Z,0.35
2022-09-10T19:56:12.229Z,0.19
2022-09-10T19:58:41.408Z,0.10
2022-09-10T20:01:09.638Z,0.56
2022-09-10T20:03:36.814Z,0.32
2022-09-10T20:06:06.486Z,0.17
2022-09-10T20:08:34.627Z,0.21
2022-09-10T20:11:03.998Z,0.11
2022-09-10T20:13:32.330Z,0.48
2022-09-10T20:16:01.801Z,0.28
2022-09-10T20:18:30.609Z,0.31
2022-09-10T20:21:08.568Z,0.56
2022-09-10T20:23:37.513Z,0.30
2022-09-10T20:26:08.850Z,0.16
2022-09-10T20:28:39.358Z,0.08
2022-09-10T20:31:09.469Z,0.04
2022-09-10T20:33:37.951Z,0.51
2022-09-10T20:36:11.412Z,0.43
2022-09-10T20:38:39.677Z,0.34
2022-09-10T20:41:07.108Z,1.13
2022-09-10T20:43:36.637Z,0.60
2022-09-10T20:46:03.742Z,1.71
2022-09-10T20:48:34.464Z,1.11
2022-09-10T20:51:01.347Z,0.59
2022-09-10T20:53:28.441Z,0.46
2022-09-10T20:56:02.101Z,0.24
2022-09-10T20:58:29.122Z,0.18
2022-09-10T21:01:04.093Z,0.14
2022-09-10T21:03:34.448Z,0.08
2022-09-10T21:06:01.218Z,0.61
2022-09-10T21:08:29.780Z,0.32
2022-09-10T21:10:58.032Z,0.17
2022-09-10T21:13:26.205Z,0.09
2022-09-10T21:15:53.598Z,0.05
2022-09-10T21:18:20.574Z,0.05
2022-09-10T21:20:48.690Z,0.26
2022-09-10T21:23:17.504Z,0.16
2022-09-10T21:25:50.464Z,0.13
2022-09-10T21:28:17.441Z,0.12
2022-09-10T21:30:44.260Z,1.40
2022-09-10T21:33:11.951Z,0.77
2022-09-10T21:35:39.293Z,0.52
2022-09-10T21:38:08.756Z,0.37
2022-09-10T21:40:35.658Z,0.36
2022-09-10T21:43:02.416Z,0.30
2022-09-10T21:45:29.774Z,0.31
2022-09-10T21:47:57.478Z,0.35
2022-09-10T21:50:25.425Z,0.25
2022-09-10T21:52:52.622Z,0.16
2022-09-10T21:55:21.052Z,0.09
2022-09-10T21:57:48.275Z,0.14
2022-09-10T22:00:20.935Z,4.25
2022-09-10T22:02:51.313Z,2.34
2022-09-10T22:05:19.194Z,1.25
2022-09-10T22:07:46.031Z,0.76
2022-09-10T22:10:13.027Z,1.05
2022-09-10T22:12:41.456Z,0.63
2022-09-10T22:15:09.424Z,0.89
2022-09-10T22:17:37.384Z,0.69
2022-09-10T22:20:05.170Z,0.40
2022-09-10T22:22:32.175Z,0.42
2022-09-10T22:24:59.223Z,0.27
2022-09-10T22:27:26.168Z,0.71
2022-09-10T22:29:54.482Z,0.59
2022-09-10T22:32:22.417Z,0.41
2022-09-10T22:34:49.167Z,0.22
2022-09-10T22:37:16.215Z,0.12
2022-09-10T22:39:44.036Z,0.09
2022-09-10T22:42:12.129Z,0.18
2022-09-10T22:44:39.104Z,0.09
2022-09-10T22:47:07.434Z,0.05
2022-09-10T22:49:34.510Z,0.07
2022-09-10T22:52:02.900Z,0.04
2022-09-10T22:54:29.961Z,0.17
2022-09-10T22:56:56.864Z,0.45
2022-09-10T22:59:23.805Z,0.24
2022-09-10T23:01:51.646Z,0.53
2022-09-10T23:04:20.045Z,0.45
2022-09-10T23:06:46.887Z,0.58
2022-09-10T23:09:15.999Z,0.31
2022-09-10T23:11:43.523Z,0.25
2022-09-10T23:14:12.722Z,0.25
2022-09-10T23:16:41.224Z,0.65
2022-09-10T23:19:12.881Z,0.63
2022-09-10T23:21:43.791Z,0.38
2022-09-10T23:24:16.067Z,0.20
2022-09-10T23:26:44.025Z,0.21
2022-09-10T23:29:13.097Z,0.60
2022-09-10T23:31:40.380Z,0.36
2022-09-10T23:34:09.874Z,0.46
2022-09-10T23:36:38.492Z,0.26
2022-09-10T23:39:12.315Z,0.44
2022-09-10T23:41:44.260Z,0.30
2022-09-10T23:44:11.109Z,0.50
2022-09-10T23:46:38.566Z,0.31
2022-09-10T23:49:06.735Z,0.57
2022-09-10T23:51:36.729Z,0.35
2022-09-10T23:54:04.718Z,0.20
2022-09-10T23:56:36.606Z,0.16
2022-09-10T23:59:04.149Z,0.46
